sensor_id;sensor_type;location;lat;lon;timestamp;P1;durP1;ratioP1;P2;durP2;ratioP2
54977;SDS011;40873;47.522;19.106;2022-09-09T00:04:13;2.30;;;1.00;;
54977;SDS011;40873;47.522;19.106;2022-09-09T00:06:53;1.88;;;0.90;;
54977;SDS011;40873;47.522;19.106;2022-09-09T00:09:45;1.58;;;1.15;;
54977;SDS011;40873;47.522;19.106;2022-09-09T00:12:29;2.83;;;1.00;;
54977;SDS011;40873;47.522;19.106;2022-09-09T00:15:13;1.80;;;1.00;;
54977;SDS011;40873;47.522;19.106;2022-09-09T00:23:05;2.90;;;0.77;;
54977;SDS011;40873;47.522;19.106;2022-09-09T00:25:39;2.35;;;0.80;;
54977;SDS011;40873;47.522;19.106;2022-09-09T00:28:19;4.30;;;1.13;;
54977;SDS011;40873;47.522;19.106;2022-09-09T00:30:50;1.90;;;1.03;;
54977;SDS011;40873;47.522;19.106;2022-09-09T00:33:19;4.85;;;0.80;;
54977;SDS011;40873;47.522;19.106;2022-09-09T00:35:53;2.83;;;0.90;;
54977;SDS011;40873;47.522;19.106;2022-09-09T00:38:34;2.28;;;1.13;;
54977;SDS011;40873;47.522;19.106;2022-09-09T00:58:38;2.65;;;1.48;;
54977;SDS011;40873;47.522;19.106;2022-09-09T01:01:11;1.83;;;1.00;;
54977;SDS011;40873;47.522;19.106;2022-09-09T01:03:45;2.22;;;1.30;;
54977;SDS011;40873;47.522;19.106;2022-09-09T01:06:21;1.92;;;1.38;;
54977;SDS011;40873;47.522;19.106;2022-09-09T01:09:22;2.33;;;1.42;;
54977;SDS011;40873;47.522;19.106;2022-09-09T01:17:05;2.20;;;1.58;;
54977;SDS011;40873;47.522;19.106;2022-09-09T01:25:15;2.08;;;1.38;;
54977;SDS011;40873;47.522;19.106;2022-09-09T01:27:46;3.30;;;1.90;;
54977;SDS011;40873;47.522;19.106;2022-09-09T01:30:17;1.90;;;1.42;;
54977;SDS011;40873;47.522;19.106;2022-09-09T01:32:46;2.90;;;1.77;;
54977;SDS011;40873;47.522;19.106;2022-09-09T01:37:45;4.93;;;1.80;;
54977;SDS011;40873;47.522;19.106;2022-09-09T01:40:12;1.83;;;1.42;;
54977;SDS011;40873;47.522;19.106;2022-09-09T01:42:39;3.63;;;1.95;;
54977;SDS011;40873;47.522;19.106;2022-09-09T01:45:06;3.47;;;1.67;;
54977;SDS011;40873;47.522;19.106;2022-09-09T01:47:34;2.25;;;1.58;;
54977;SDS011;40873;47.522;19.106;2022-09-09T01:50:02;2.20;;;1.55;;
54977;SDS011;40873;47.522;19.106;2022-09-09T01:52:29;2.88;;;1.83;;
54977;SDS011;40873;47.522;19.106;2022-09-09T01:55:06;2.03;;;1.63;;
54977;SDS011;40873;47.522;19.106;2022-09-09T01:57:46;2.20;;;1.73;;
54977;SDS011;40873;47.522;19.106;2022-09-09T02:00:24;3.03;;;1.92;;
54977;SDS011;40873;47.522;19.106;2022-09-09T02:05:38;5.28;;;1.85;;
54977;SDS011;40873;47.522;19.106;2022-09-09T02:08:13;3.42;;;1.70;;
54977;SDS011;40873;47.522;19.106;2022-09-09T02:10:50;3.15;;;1.85;;
54977;SDS011;40873;47.522;19.106;2022-09-09T02:13:34;2.88;;;2.05;;
54977;SDS011;40873;47.522;19.106;2022-09-09T02:21:07;2.63;;;1.83;;
54977;SDS011;40873;47.522;19.106;2022-09-09T02:23:38;3.92;;;1.90;;
54977;SDS011;40873;47.522;19.106;2022-09-09T02:26:07;3.03;;;1.77;;
54977;SDS011;40873;47.522;19.106;2022-09-09T02:28:36;3.63;;;2.10;;
54977;SDS011;40873;47.522;19.106;2022-09-09T02:31:05;3.90;;;2.10;;
54977;SDS011;40873;47.522;19.106;2022-09-09T02:33:42;5.22;;;1.80;;
54977;SDS011;40873;47.522;19.106;2022-09-09T02:36:14;3.50;;;2.03;;
54977;SDS011;40873;47.522;19.106;2022-09-09T02:38:44;2.15;;;1.63;;
54977;SDS011;40873;47.522;19.106;2022-09-09T02:41:18;2.50;;;1.80;;
54977;SDS011;40873;47.522;19.106;2022-09-09T02:43:49;2.58;;;1.77;;
54977;SDS011;40873;47.522;19.106;2022-09-09T02:49:10;2.03;;;1.70;;
54977;SDS011;40873;47.522;19.106;2022-09-09T02:51:49;2.33;;;1.50;;
54977;SDS011;40873;47.522;19.106;2022-09-09T02:57:04;2.97;;;2.00;;
54977;SDS011;40873;47.522;19.106;2022-09-09T02:59:37;3.08;;;1.92;;
54977;SDS011;40873;47.522;19.106;2022-09-09T03:02:05;4.70;;;2.45;;
54977;SDS011;40873;47.522;19.106;2022-09-09T03:04:32;3.05;;;1.63;;
54977;SDS011;40873;47.522;19.106;2022-09-09T03:06:59;2.60;;;1.77;;
54977;SDS011;40873;47.522;19.106;2022-09-09T03:09:26;4.97;;;2.25;;
54977;SDS011;40873;47.522;19.106;2022-09-09T03:11:53;4.88;;;2.35;;
54977;SDS011;40873;47.522;19.106;2022-09-09T03:14:24;2.72;;;2.10;;
54977;SDS011;40873;47.522;19.106;2022-09-09T03:16:52;4.57;;;2.08;;
54977;SDS011;40873;47.522;19.106;2022-09-09T03:19:20;3.08;;;1.83;;
54977;SDS011;40873;47.522;19.106;2022-09-09T03:21:47;2.75;;;1.95;;
54977;SDS011;40873;47.522;19.106;2022-09-09T03:24:14;5.22;;;2.58;;
54977;SDS011;40873;47.522;19.106;2022-09-09T03:26:41;4.20;;;2.53;;
54977;SDS011;40873;47.522;19.106;2022-09-09T03:29:11;3.38;;;2.40;;
54977;SDS011;40873;47.522;19.106;2022-09-09T03:31:39;4.13;;;2.72;;
54977;SDS011;40873;47.522;19.106;2022-09-09T03:34:06;4.43;;;2.90;;
54977;SDS011;40873;47.522;19.106;2022-09-09T03:36:33;3.58;;;2.55;;
54977;SDS011;40873;47.522;19.106;2022-09-09T03:39:00;4.78;;;2.80;;
54977;SDS011;40873;47.522;19.106;2022-09-09T03:41:29;6.43;;;2.33;;
54977;SDS011;40873;47.522;19.106;2022-09-09T03:43:56;3.60;;;2.83;;
54977;SDS011;40873;47.522;19.106;2022-09-09T03:46:24;3.55;;;2.60;;
54977;SDS011;40873;47.522;19.106;2022-09-09T03:48:51;3.38;;;2.80;;
54977;SDS011;40873;47.522;19.106;2022-09-09T03:51:19;3.58;;;2.67;;
54977;SDS011;40873;47.522;19.106;2022-09-09T03:53:47;4.85;;;3.10;;
54977;SDS011;40873;47.522;19.106;2022-09-09T03:56:15;4.22;;;2.88;;
54977;SDS011;40873;47.522;19.106;2022-09-09T03:58:42;6.93;;;3.15;;
54977;SDS011;40873;47.522;19.106;2022-09-09T04:01:11;4.40;;;2.88;;
54977;SDS011;40873;47.522;19.106;2022-09-09T04:03:44;3.63;;;3.03;;
54977;SDS011;40873;47.522;19.106;2022-09-09T04:06:12;5.43;;;2.65;;
54977;SDS011;40873;47.522;19.106;2022-09-09T04:08:40;4.82;;;3.08;;
54977;SDS011;40873;47.522;19.106;2022-09-09T04:11:08;5.60;;;3.00;;
54977;SDS011;40873;47.522;19.106;2022-09-09T04:13:39;3.45;;;2.55;;
54977;SDS011;40873;47.522;19.106;2022-09-09T04:16:09;3.50;;;2.58;;
54977;SDS011;40873;47.522;19.106;2022-09-09T04:18:38;3.83;;;2.83;;
54977;SDS011;40873;47.522;19.106;2022-09-09T04:21:05;4.72;;;2.90;;
54977;SDS011;40873;47.522;19.106;2022-09-09T04:23:33;4.95;;;2.50;;
54977;SDS011;40873;47.522;19.106;2022-09-09T04:26:01;6.68;;;2.33;;
54977;SDS011;40873;47.522;19.106;2022-09-09T04:28:31;3.25;;;2.17;;
54977;SDS011;40873;47.522;19.106;2022-09-09T04:31:04;3.20;;;2.45;;
54977;SDS011;40873;47.522;19.106;2022-09-09T04:33:36;3.45;;;2.88;;
54977;SDS011;40873;47.522;19.106;2022-09-09T04:36:06;4.28;;;3.03;;
54977;SDS011;40873;47.522;19.106;2022-09-09T04:38:33;6.20;;;3.15;;
54977;SDS011;40873;47.522;19.106;2022-09-09T04:41:00;3.80;;;3.10;;
54977;SDS011;40873;47.522;19.106;2022-09-09T04:43:28;3.90;;;2.80;;
54977;SDS011;40873;47.522;19.106;2022-09-09T04:45:57;4.03;;;2.85;;
54977;SDS011;40873;47.522;19.106;2022-09-09T04:48:26;4.80;;;2.45;;
54977;SDS011;40873;47.522;19.106;2022-09-09T04:50:54;3.83;;;2.60;;
54977;SDS011;40873;47.522;19.106;2022-09-09T04:53:22;5.40;;;2.63;;
54977;SDS011;40873;47.522;19.106;2022-09-09T04:55:49;3.15;;;2.35;;
54977;SDS011;40873;47.522;19.106;2022-09-09T04:58:16;4.20;;;2.35;;
54977;SDS011;40873;47.522;19.106;2022-09-09T05:00:43;7.80;;;2.72;;
54977;SDS011;40873;47.522;19.106;2022-09-09T05:03:10;4.18;;;2.22;;
54977;SDS011;40873;47.522;19.106;2022-09-09T05:05:38;3.60;;;2.33;;
54977;SDS011;40873;47.522;19.106;2022-09-09T05:08:06;4.80;;;2.90;;
54977;SDS011;40873;47.522;19.106;2022-09-09T05:10:37;3.35;;;2.75;;
54977;SDS011;40873;47.522;19.106;2022-09-09T05:13:05;4.65;;;3.00;;
54977;SDS011;40873;47.522;19.106;2022-09-09T05:15:32;4.00;;;2.88;;
54977;SDS011;40873;47.522;19.106;2022-09-09T05:18:00;3.92;;;2.70;;
54977;SDS011;40873;47.522;19.106;2022-09-09T05:20:27;4.28;;;2.97;;
54977;SDS011;40873;47.522;19.106;2022-09-09T05:22:55;6.07;;;3.63;;
54977;SDS011;40873;47.522;19.106;2022-09-09T05:25:23;7.68;;;3.50;;
54977;SDS011;40873;47.522;19.106;2022-09-09T05:27:52;5.90;;;3.75;;
54977;SDS011;40873;47.522;19.106;2022-09-09T05:30:21;8.82;;;3.40;;
54977;SDS011;40873;47.522;19.106;2022-09-09T05:32:49;3.70;;;2.92;;
54977;SDS011;40873;47.522;19.106;2022-09-09T05:35:16;3.80;;;3.03;;
54977;SDS011;40873;47.522;19.106;2022-09-09T05:37:45;8.18;;;3.33;;
54977;SDS011;40873;47.522;19.106;2022-09-09T05:40:12;5.15;;;2.53;;
54977;SDS011;40873;47.522;19.106;2022-09-09T05:42:40;4.22;;;3.13;;
54977;SDS011;40873;47.522;19.106;2022-09-09T05:45:07;4.78;;;2.25;;
54977;SDS011;40873;47.522;19.106;2022-09-09T05:47:35;7.80;;;3.03;;
54977;SDS011;40873;47.522;19.106;2022-09-09T05:50:03;4.97;;;2.80;;
54977;SDS011;40873;47.522;19.106;2022-09-09T05:52:30;4.85;;;2.60;;
54977;SDS011;40873;47.522;19.106;2022-09-09T05:54:58;3.53;;;2.50;;
54977;SDS011;40873;47.522;19.106;2022-09-09T05:57:26;3.30;;;2.95;;
54977;SDS011;40873;47.522;19.106;2022-09-09T05:59:52;4.97;;;2.50;;
54977;SDS011;40873;47.522;19.106;2022-09-09T06:02:20;4.03;;;2.63;;
54977;SDS011;40873;47.522;19.106;2022-09-09T06:04:47;3.72;;;2.45;;
54977;SDS011;40873;47.522;19.106;2022-09-09T06:07:14;3.75;;;2.55;;
54977;SDS011;40873;47.522;19.106;2022-09-09T06:09:41;4.80;;;2.72;;
54977;SDS011;40873;47.522;19.106;2022-09-09T06:12:07;5.38;;;2.50;;
54977;SDS011;40873;47.522;19.106;2022-09-09T06:14:35;6.30;;;2.92;;
54977;SDS011;40873;47.522;19.106;2022-09-09T06:17:03;5.10;;;2.90;;
54977;SDS011;40873;47.522;19.106;2022-09-09T06:19:30;2.90;;;2.35;;
54977;SDS011;40873;47.522;19.106;2022-09-09T06:21:57;5.57;;;2.40;;
54977;SDS011;40873;47.522;19.106;2022-09-09T06:24:25;4.57;;;2.67;;
54977;SDS011;40873;47.522;19.106;2022-09-09T06:26:51;2.50;;;1.95;;
54977;SDS011;40873;47.522;19.106;2022-09-09T06:29:18;2.05;;;1.52;;
54977;SDS011;40873;47.522;19.106;2022-09-09T06:31:45;4.95;;;2.10;;
54977;SDS011;40873;47.522;19.106;2022-09-09T06:34:12;2.42;;;1.90;;
54977;SDS011;40873;47.522;19.106;2022-09-09T06:36:39;2.63;;;1.73;;
54977;SDS011;40873;47.522;19.106;2022-09-09T06:39:07;4.20;;;1.83;;
54977;SDS011;40873;47.522;19.106;2022-09-09T06:41:40;2.13;;;1.48;;
54977;SDS011;40873;47.522;19.106;2022-09-09T06:44:09;2.40;;;1.88;;
54977;SDS011;40873;47.522;19.106;2022-09-09T06:46:38;3.80;;;1.58;;
54977;SDS011;40873;47.522;19.106;2022-09-09T06:49:07;2.13;;;1.60;;
54977;SDS011;40873;47.522;19.106;2022-09-09T06:51:35;2.85;;;1.48;;
54977;SDS011;40873;47.522;19.106;2022-09-09T06:54:09;2.45;;;1.55;;
54977;SDS011;40873;47.522;19.106;2022-09-09T06:56:37;2.95;;;1.40;;
54977;SDS011;40873;47.522;19.106;2022-09-09T06:59:09;2.13;;;1.70;;
54977;SDS011;40873;47.522;19.106;2022-09-09T07:01:39;3.58;;;1.38;;
54977;SDS011;40873;47.522;19.106;2022-09-09T07:04:07;4.95;;;1.38;;
54977;SDS011;40873;47.522;19.106;2022-09-09T07:06:36;3.97;;;1.33;;
54977;SDS011;40873;47.522;19.106;2022-09-09T07:09:06;2.20;;;1.30;;
54977;SDS011;40873;47.522;19.106;2022-09-09T07:11:38;5.25;;;1.48;;
54977;SDS011;40873;47.522;19.106;2022-09-09T07:14:08;2.47;;;1.17;;
54977;SDS011;40873;47.522;19.106;2022-09-09T07:16:35;2.05;;;1.25;;
54977;SDS011;40873;47.522;19.106;2022-09-09T07:19:03;2.30;;;1.50;;
54977;SDS011;40873;47.522;19.106;2022-09-09T07:21:32;4.03;;;1.52;;
54977;SDS011;40873;47.522;19.106;2022-09-09T07:23:59;2.13;;;1.67;;
54977;SDS011;40873;47.522;19.106;2022-09-09T07:26:28;2.22;;;1.65;;
54977;SDS011;40873;47.522;19.106;2022-09-09T07:28:56;2.85;;;1.85;;
54977;SDS011;40873;47.522;19.106;2022-09-09T07:31:25;4.60;;;1.75;;
54977;SDS011;40873;47.522;19.106;2022-09-09T07:33:59;2.53;;;1.48;;
54977;SDS011;40873;47.522;19.106;2022-09-09T07:36:28;5.32;;;1.88;;
54977;SDS011;40873;47.522;19.106;2022-09-09T07:39:09;2.38;;;1.27;;
54977;SDS011;40873;47.522;19.106;2022-09-09T07:41:39;1.45;;;1.10;;
54977;SDS011;40873;47.522;19.106;2022-09-09T07:44:09;2.25;;;1.40;;
54977;SDS011;40873;47.522;19.106;2022-09-09T07:46:38;5.93;;;1.40;;
54977;SDS011;40873;47.522;19.106;2022-09-09T07:49:06;2.45;;;1.23;;
54977;SDS011;40873;47.522;19.106;2022-09-09T07:51:35;1.80;;;1.15;;
54977;SDS011;40873;47.522;19.106;2022-09-09T07:54:04;2.00;;;1.30;;
54977;SDS011;40873;47.522;19.106;2022-09-09T07:56:33;5.82;;;1.33;;
54977;SDS011;40873;47.522;19.106;2022-09-09T07:59:00;1.85;;;1.10;;
54977;SDS011;40873;47.522;19.106;2022-09-09T08:01:29;3.80;;;1.20;;
54977;SDS011;40873;47.522;19.106;2022-09-09T08:04:00;2.42;;;1.08;;
54977;SDS011;40873;47.522;19.106;2022-09-09T08:06:29;3.33;;;1.17;;
54977;SDS011;40873;47.522;19.106;2022-09-09T08:09:02;1.83;;;0.95;;
54977;SDS011;40873;47.522;19.106;2022-09-09T08:11:30;1.77;;;1.20;;
54977;SDS011;40873;47.522;19.106;2022-09-09T08:14:04;1.50;;;1.10;;
54977;SDS011;40873;47.522;19.106;2022-09-09T08:16:33;2.65;;;1.00;;
54977;SDS011;40873;47.522;19.106;2022-09-09T08:19:02;2.63;;;1.15;;
54977;SDS011;40873;47.522;19.106;2022-09-09T08:21:30;2.10;;;1.08;;
54977;SDS011;40873;47.522;19.106;2022-09-09T08:24:00;1.48;;;1.10;;
54977;SDS011;40873;47.522;19.106;2022-09-09T08:26:32;1.92;;;0.90;;
54977;SDS011;40873;47.522;19.106;2022-09-09T08:29:01;4.00;;;1.30;;
54977;SDS011;40873;47.522;19.106;2022-09-09T08:31:40;1.58;;;1.10;;
54977;SDS011;40873;47.522;19.106;2022-09-09T08:34:09;1.67;;;0.88;;
54977;SDS011;40873;47.522;19.106;2022-09-09T08:36:41;1.60;;;1.13;;
54977;SDS011;40873;47.522;19.106;2022-09-09T08:39:11;2.03;;;1.17;;
54977;SDS011;40873;47.522;19.106;2022-09-09T08:52:59;2.38;;;1.10;;
54977;SDS011;40873;47.522;19.106;2022-09-09T08:58:19;1.13;;;1.00;;
54977;SDS011;40873;47.522;19.106;2022-09-09T09:01:09;3.33;;;0.90;;
54977;SDS011;40873;47.522;19.106;2022-09-09T09:11:59;2.78;;;0.88;;
54977;SDS011;40873;47.522;19.106;2022-09-09T09:14:29;1.30;;;1.00;;
54977;SDS011;40873;47.522;19.106;2022-09-09T09:17:04;1.40;;;0.80;;
54977;SDS011;40873;47.522;19.106;2022-09-09T09:19:59;1.50;;;1.00;;
54977;SDS011;40873;47.522;19.106;2022-09-09T09:22:36;2.28;;;0.98;;
54977;SDS011;40873;47.522;19.106;2022-09-09T09:25:12;1.30;;;1.10;;
54977;SDS011;40873;47.522;19.106;2022-09-09T09:30:36;2.38;;;0.80;;
54977;SDS011;40873;47.522;19.106;2022-09-09T09:33:26;4.88;;;1.40;;
54977;SDS011;40873;47.522;19.106;2022-09-09T09:36:01;1.40;;;0.77;;
54977;SDS011;40873;47.522;19.106;2022-09-09T09:38:29;2.13;;;0.80;;
54977;SDS011;40873;47.522;19.106;2022-09-09T09:41:16;1.17;;;0.60;;
54977;SDS011;40873;47.522;19.106;2022-09-09T09:43:53;1.90;;;1.13;;
54977;SDS011;40873;47.522;19.106;2022-09-09T09:46:21;2.40;;;0.85;;
54977;SDS011;40873;47.522;19.106;2022-09-09T09:48:57;1.60;;;0.70;;
54977;SDS011;40873;47.522;19.106;2022-09-09T09:51:32;1.00;;;0.60;;
54977;SDS011;40873;47.522;19.106;2022-09-09T09:54:20;1.30;;;0.63;;
54977;SDS011;40873;47.522;19.106;2022-09-09T09:56:55;2.05;;;1.10;;
54977;SDS011;40873;47.522;19.106;2022-09-09T09:59:33;1.70;;;0.80;;
54977;SDS011;40873;47.522;19.106;2022-09-09T10:02:21;2.05;;;1.00;;
54977;SDS011;40873;47.522;19.106;2022-09-09T10:05:00;4.03;;;0.80;;
54977;SDS011;40873;47.522;19.106;2022-09-09T10:07:32;1.38;;;0.55;;
54977;SDS011;40873;47.522;19.106;2022-09-09T10:09:59;2.22;;;0.77;;
54977;SDS011;40873;47.522;19.106;2022-09-09T10:21:06;5.53;;;0.90;;
54977;SDS011;40873;47.522;19.106;2022-09-09T10:37:41;0.93;;;0.52;;
54977;SDS011;40873;47.522;19.106;2022-09-09T10:42:53;5.45;;;0.73;;
54977;SDS011;40873;47.522;19.106;2022-09-09T10:56:23;2.53;;;0.70;;
54977;SDS011;40873;47.522;19.106;2022-09-09T10:59:02;2.88;;;0.82;;
54977;SDS011;40873;47.522;19.106;2022-09-09T11:04:10;2.03;;;0.98;;
54977;SDS011;40873;47.522;19.106;2022-09-09T11:06:46;0.85;;;0.60;;
54977;SDS011;40873;47.522;19.106;2022-09-09T11:09:19;4.30;;;1.02;;
54977;SDS011;40873;47.522;19.106;2022-09-09T11:11:55;1.65;;;0.70;;
54977;SDS011;40873;47.522;19.106;2022-09-09T11:17:22;3.72;;;0.55;;
54977;SDS011;40873;47.522;19.106;2022-09-09T11:19:58;0.68;;;0.40;;
54977;SDS011;40873;47.522;19.106;2022-09-09T11:22:36;4.10;;;1.73;;
54977;SDS011;40873;47.522;19.106;2022-09-09T11:30:59;5.28;;;1.38;;
54977;SDS011;40873;47.522;19.106;2022-09-09T11:40:18;3.85;;;0.80;;
54977;SDS011;40873;47.522;19.106;2022-09-09T11:42:59;1.35;;;0.65;;
54977;SDS011;40873;47.522;19.106;2022-09-09T11:45:32;5.27;;;1.50;;
54977;SDS011;40873;47.522;19.106;2022-09-09T11:48:02;1.23;;;0.70;;
54977;SDS011;40873;47.522;19.106;2022-09-09T11:50:36;2.33;;;0.90;;
54977;SDS011;40873;47.522;19.106;2022-09-09T11:56:01;1.63;;;0.63;;
54977;SDS011;40873;47.522;19.106;2022-09-09T11:58:33;1.88;;;0.60;;
54977;SDS011;40873;47.522;19.106;2022-09-09T12:01:13;1.25;;;0.73;;
54977;SDS011;40873;47.522;19.106;2022-09-09T12:03:47;1.95;;;0.52;;
54977;SDS011;40873;47.522;19.106;2022-09-09T12:06:19;2.63;;;1.02;;
54977;SDS011;40873;47.522;19.106;2022-09-09T12:08:55;3.80;;;0.88;;
54977;SDS011;40873;47.522;19.106;2022-09-09T12:11:31;1.70;;;0.60;;
54977;SDS011;40873;47.522;19.106;2022-09-09T12:13:59;3.97;;;0.90;;
54977;SDS011;40873;47.522;19.106;2022-09-09T12:16:31;3.85;;;1.10;;
54977;SDS011;40873;47.522;19.106;2022-09-09T12:19:03;1.50;;;0.50;;
54977;SDS011;40873;47.522;19.106;2022-09-09T12:21:34;1.20;;;0.60;;
54977;SDS011;40873;47.522;19.106;2022-09-09T12:24:27;1.45;;;1.02;;
54977;SDS011;40873;47.522;19.106;2022-09-09T12:27:07;1.50;;;0.53;;
54977;SDS011;40873;47.522;19.106;2022-09-09T12:29:57;1.90;;;0.70;;
54977;SDS011;40873;47.522;19.106;2022-09-09T12:32:35;1.27;;;0.40;;
54977;SDS011;40873;47.522;19.106;2022-09-09T12:35:09;4.25;;;1.23;;
54977;SDS011;40873;47.522;19.106;2022-09-09T12:37:43;1.48;;;0.60;;
54977;SDS011;40873;47.522;19.106;2022-09-09T12:40:23;3.75;;;0.95;;
54977;SDS011;40873;47.522;19.106;2022-09-09T12:42:52;1.65;;;0.80;;
54977;SDS011;40873;47.522;19.106;2022-09-09T12:45:24;1.13;;;0.70;;
54977;SDS011;40873;47.522;19.106;2022-09-09T12:50:24;1.80;;;0.70;;
54977;SDS011;40873;47.522;19.106;2022-09-09T12:52:53;1.20;;;0.60;;
54977;SDS011;40873;47.522;19.106;2022-09-09T12:55:30;1.55;;;0.73;;
54977;SDS011;40873;47.522;19.106;2022-09-09T12:58:01;6.68;;;1.10;;
54977;SDS011;40873;47.522;19.106;2022-09-09T13:00:33;1.85;;;0.60;;
54977;SDS011;40873;47.522;19.106;2022-09-09T13:03:14;0.80;;;0.52;;
54977;SDS011;40873;47.522;19.106;2022-09-09T13:05:44;1.45;;;0.50;;
54977;SDS011;40873;47.522;19.106;2022-09-09T13:08:13;1.77;;;0.60;;
54977;SDS011;40873;47.522;19.106;2022-09-09T13:10:43;1.88;;;0.40;;
54977;SDS011;40873;47.522;19.106;2022-09-09T13:13:25;3.20;;;0.60;;
54977;SDS011;40873;47.522;19.106;2022-09-09T13:15:54;2.70;;;0.63;;
54977;SDS011;40873;47.522;19.106;2022-09-09T13:18:28;2.17;;;0.80;;
54977;SDS011;40873;47.522;19.106;2022-09-09T13:20:58;2.75;;;0.73;;
54977;SDS011;40873;47.522;19.106;2022-09-09T13:23:27;1.67;;;0.57;;
54977;SDS011;40873;47.522;19.106;2022-09-09T13:26:00;2.13;;;0.50;;
54977;SDS011;40873;47.522;19.106;2022-09-09T13:28:30;1.23;;;0.50;;
54977;SDS011;40873;47.522;19.106;2022-09-09T13:31:01;0.82;;;0.60;;
54977;SDS011;40873;47.522;19.106;2022-09-09T13:33:39;2.58;;;0.50;;
54977;SDS011;40873;47.522;19.106;2022-09-09T13:36:07;1.83;;;0.63;;
54977;SDS011;40873;47.522;19.106;2022-09-09T13:38:40;3.28;;;0.60;;
54977;SDS011;40873;47.522;19.106;2022-09-09T13:41:22;3.30;;;0.50;;
54977;SDS011;40873;47.522;19.106;2022-09-09T13:43:50;1.45;;;0.70;;
54977;SDS011;40873;47.522;19.106;2022-09-09T13:54:06;0.77;;;0.50;;
54977;SDS011;40873;47.522;19.106;2022-09-09T13:56:36;1.08;;;0.50;;
54977;SDS011;40873;47.522;19.106;2022-09-09T13:59:05;2.00;;;0.70;;
54977;SDS011;40873;47.522;19.106;2022-09-09T14:01:38;1.13;;;0.73;;
54977;SDS011;40873;47.522;19.106;2022-09-09T14:04:05;0.75;;;0.60;;
54977;SDS011;40873;47.522;19.106;2022-09-09T14:06:33;0.98;;;0.55;;
54977;SDS011;40873;47.522;19.106;2022-09-09T14:09:05;4.72;;;1.13;;
54977;SDS011;40873;47.522;19.106;2022-09-09T14:11:33;7.85;;;1.20;;
54977;SDS011;40873;47.522;19.106;2022-09-09T14:13:59;1.98;;;1.10;;
54977;SDS011;40873;47.522;19.106;2022-09-09T14:16:27;2.25;;;0.60;;
54977;SDS011;40873;47.522;19.106;2022-09-09T14:18:54;4.18;;;0.70;;
54977;SDS011;40873;47.522;19.106;2022-09-09T14:21:25;1.50;;;0.85;;
54977;SDS011;40873;47.522;19.106;2022-09-09T14:23:54;2.33;;;0.50;;
54977;SDS011;40873;47.522;19.106;2022-09-09T14:26:21;1.17;;;0.60;;
54977;SDS011;40873;47.522;19.106;2022-09-09T14:28:48;0.55;;;0.35;;
54977;SDS011;40873;47.522;19.106;2022-09-09T14:31:22;1.75;;;0.50;;
54977;SDS011;40873;47.522;19.106;2022-09-09T14:33:49;1.80;;;0.63;;
54977;SDS011;40873;47.522;19.106;2022-09-09T14:36:17;0.93;;;0.80;;
54977;SDS011;40873;47.522;19.106;2022-09-09T14:38:44;2.42;;;0.52;;
54977;SDS011;40873;47.522;19.106;2022-09-09T14:41:12;2.58;;;0.60;;
54977;SDS011;40873;47.522;19.106;2022-09-09T14:43:44;1.63;;;0.45;;
54977;SDS011;40873;47.522;19.106;2022-09-09T14:46:13;1.83;;;0.77;;
54977;SDS011;40873;47.522;19.106;2022-09-09T14:48:41;2.05;;;0.60;;
54977;SDS011;40873;47.522;19.106;2022-09-09T14:51:09;2.70;;;0.70;;
54977;SDS011;40873;47.522;19.106;2022-09-09T14:53:39;1.85;;;0.55;;
54977;SDS011;40873;47.522;19.106;2022-09-09T14:56:11;1.55;;;0.47;;
54977;SDS011;40873;47.522;19.106;2022-09-09T14:58:42;1.08;;;0.60;;
54977;SDS011;40873;47.522;19.106;2022-09-09T15:01:11;2.97;;;0.88;;
54977;SDS011;40873;47.522;19.106;2022-09-09T15:03:40;1.70;;;0.60;;
54977;SDS011;40873;47.522;19.106;2022-09-09T15:06:13;2.47;;;0.90;;
54977;SDS011;40873;47.522;19.106;2022-09-09T15:08:41;2.05;;;0.63;;
54977;SDS011;40873;47.522;19.106;2022-09-09T15:11:10;1.30;;;0.60;;
54977;SDS011;40873;47.522;19.106;2022-09-09T15:13:38;1.02;;;0.50;;
54977;SDS011;40873;47.522;19.106;2022-09-09T15:16:14;2.05;;;0.50;;
54977;SDS011;40873;47.522;19.106;2022-09-09T15:18:43;1.48;;;0.77;;
54977;SDS011;40873;47.522;19.106;2022-09-09T15:21:12;3.03;;;0.60;;
54977;SDS011;40873;47.522;19.106;2022-09-09T15:23:40;0.98;;;0.45;;
54977;SDS011;40873;47.522;19.106;2022-09-09T15:26:08;1.42;;;0.90;;
54977;SDS011;40873;47.522;19.106;2022-09-09T15:28:36;2.35;;;0.60;;
54977;SDS011;40873;47.522;19.106;2022-09-09T15:31:05;2.10;;;0.68;;
54977;SDS011;40873;47.522;19.106;2022-09-09T15:33:53;1.55;;;0.70;;
54977;SDS011;40873;47.522;19.106;2022-09-09T15:38:56;1.27;;;0.70;;
54977;SDS011;40873;47.522;19.106;2022-09-09T15:41:23;0.98;;;0.60;;
54977;SDS011;40873;47.522;19.106;2022-09-09T15:43:52;1.95;;;0.60;;
54977;SDS011;40873;47.522;19.106;2022-09-09T15:46:40;0.85;;;0.55;;
54977;SDS011;40873;47.522;19.106;2022-09-09T15:49:10;2.22;;;0.45;;
54977;SDS011;40873;47.522;19.106;2022-09-09T15:51:39;1.50;;;0.52;;
54977;SDS011;40873;47.522;19.106;2022-09-09T15:54:11;1.08;;;0.60;;
54977;SDS011;40873;47.522;19.106;2022-09-09T15:56:49;0.85;;;0.35;;
54977;SDS011;40873;47.522;19.106;2022-09-09T15:59:18;1.80;;;0.50;;
54977;SDS011;40873;47.522;19.106;2022-09-09T16:01:45;0.90;;;0.52;;
54977;SDS011;40873;47.522;19.106;2022-09-09T16:04:12;0.60;;;0.60;;
54977;SDS011;40873;47.522;19.106;2022-09-09T16:06:39;1.00;;;0.60;;
54977;SDS011;40873;47.522;19.106;2022-09-09T16:09:06;2.22;;;0.80;;
54977;SDS011;40873;47.522;19.106;2022-09-09T16:11:35;2.70;;;0.45;;
54977;SDS011;40873;47.522;19.106;2022-09-09T16:14:03;3.53;;;0.73;;
54977;SDS011;40873;47.522;19.106;2022-09-09T16:16:32;1.67;;;0.60;;
54977;SDS011;40873;47.522;19.106;2022-09-09T16:19:00;1.52;;;0.77;;
54977;SDS011;40873;47.522;19.106;2022-09-09T16:21:32;1.33;;;0.77;;
54977;SDS011;40873;47.522;19.106;2022-09-09T16:24:02;2.25;;;0.70;;
54977;SDS011;40873;47.522;19.106;2022-09-09T16:26:33;2.40;;;0.75;;
54977;SDS011;40873;47.522;19.106;2022-09-09T16:29:02;2.40;;;0.70;;
54977;SDS011;40873;47.522;19.106;2022-09-09T16:31:29;2.28;;;0.60;;
54977;SDS011;40873;47.522;19.106;2022-09-09T16:33:58;1.52;;;0.90;;
54977;SDS011;40873;47.522;19.106;2022-09-09T16:36:26;1.65;;;0.90;;
54977;SDS011;40873;47.522;19.106;2022-09-09T16:38:58;1.50;;;0.80;;
54977;SDS011;40873;47.522;19.106;2022-09-09T16:41:26;4.90;;;0.93;;
54977;SDS011;40873;47.522;19.106;2022-09-09T16:43:56;3.92;;;1.27;;
54977;SDS011;40873;47.522;19.106;2022-09-09T16:46:29;1.45;;;0.85;;
54977;SDS011;40873;47.522;19.106;2022-09-09T16:48:58;1.30;;;0.93;;
54977;SDS011;40873;47.522;19.106;2022-09-09T16:51:27;2.15;;;1.25;;
54977;SDS011;40873;47.522;19.106;2022-09-09T16:53:57;1.52;;;0.85;;
54977;SDS011;40873;47.522;19.106;2022-09-09T16:56:26;2.97;;;1.00;;
54977;SDS011;40873;47.522;19.106;2022-09-09T16:58:58;3.53;;;1.10;;
54977;SDS011;40873;47.522;19.106;2022-09-09T17:01:28;1.95;;;1.10;;
54977;SDS011;40873;47.522;19.106;2022-09-09T17:04:01;2.58;;;1.10;;
54977;SDS011;40873;47.522;19.106;2022-09-09T17:06:30;4.68;;;1.55;;
54977;SDS011;40873;47.522;19.106;2022-09-09T17:09:01;2.75;;;1.10;;
54977;SDS011;40873;47.522;19.106;2022-09-09T17:11:31;6.20;;;1.77;;
54977;SDS011;40873;47.522;19.106;2022-09-09T17:13:58;3.05;;;1.20;;
54977;SDS011;40873;47.522;19.106;2022-09-09T17:16:25;1.85;;;1.30;;
54977;SDS011;40873;47.522;19.106;2022-09-09T17:18:56;2.53;;;1.10;;
54977;SDS011;40873;47.522;19.106;2022-09-09T17:21:25;2.97;;;1.20;;
54977;SDS011;40873;47.522;19.106;2022-09-09T17:23:53;4.47;;;1.50;;